Time;durP1;ratioP1;P1;durP2;ratioP2;P2;SDS_P1;SDS_P2;PMS_P1;PMS_P2;Temp;Humidity;BMP_temperature;BMP_pressure;BME280_temperature;BME280_humidity;BME280_pressure;Samples;Min_cycle;Max_cycle;Signal;HPM_P1;HPM_P2
2022/01/14 00:01:32;;;;;;;28.58;15.18;;;;;;;-1.97;94.86;101409.03;2005695;80;20197;-69
2022/01/14 00:04:36;;;;;;;26.37;15.93;;;;;;;-1.99;94.76;101411.41;2006672;80;20169;-68
2022/01/14 00:07:39;;;;;;;26.56;14.81;;;;;;;-2.03;94.56;101413.63;2005968;80;20199;-68
2022/01/14 00:10:48;;;;;;;29.86;15.24;;;;;;;-2.03;94.68;101404.31;2006324;80;20219;-68
2022/01/14 00:14:07;;;;;;;27.66;14.61;;;;;;;-2.02;94.67;101405.22;2006351;80;20250;-68
2022/01/14 00:17:12;;;;;;;30.60;15.30;;;;;;;-2.03;94.67;101406.88;2002166;78;38361;-68
2022/01/14 00:20:15;;;;;;;29.02;15.48;;;;;;;-2.02;94.71;101400.13;2001071;81;20754;-68
2022/01/14 00:23:18;;;;;;;27.03;15.31;;;;;;;-2.03;94.69;101404.31;2001072;81;20270;-68
2022/01/14 00:33:06;;;;;;;30.28;15.40;;;;;;;-2.10;94.42;101391.00;2068954;70;21935;-68
2022/01/14 00:36:08;;;;;;;27.60;14.94;;;;;;;-2.09;94.52;101395.34;2010780;80;20932;-68
2022/01/14 00:39:13;;;;;;;28.59;14.94;;;;;;;-2.10;94.50;101383.38;2011355;80;20216;-68
2022/01/14 00:42:16;;;;;;;29.76;14.58;;;;;;;-2.13;94.45;101379.84;2011444;80;20164;-68
2022/01/14 00:45:19;;;;;;;27.79;15.80;;;;;;;-2.13;94.55;101381.50;2010135;80;20190;-68
2022/01/14 00:48:22;;;;;;;27.63;14.92;;;;;;;-2.15;94.58;101370.31;2010361;80;20275;-68
2022/01/14 00:51:24;;;;;;;27.00;15.43;;;;;;;-2.15;94.74;101375.41;2010036;80;20172;-68
2022/01/14 00:54:27;;;;;;;28.64;15.40;;;;;;;-2.16;94.81;101366.84;2009366;80;20176;-68
2022/01/14 00:59:14;;;;;;;27.59;15.17;;;;;;;-2.15;94.93;101375.41;2010738;80;20220;-68
2022/01/14 01:00:58;;;;;;;25.51;13.72;;;;;;;-2.14;94.97;101369.53;2009979;78;21952;-68
2022/01/14 01:04:01;;;;;;;30.11;14.79;;;;;;;-2.18;94.92;101376.00;2011387;80;20839;-68
2022/01/14 01:07:08;;;;;;;25.59;13.77;;;;;;;-2.19;94.89;101384.41;2011747;80;20206;-68
2022/01/14 01:10:11;;;;;;;27.61;14.07;;;;;;;-2.18;95.06;101382.75;2010123;80;20181;-68
2022/01/14 01:13:26;;;;;;;28.49;14.67;;;;;;;-2.18;95.04;101380.22;2007826;80;21045;-68
2022/01/14 01:16:29;;;;;;;28.06;14.37;;;;;;;-2.16;95.02;101378.69;2008472;78;23329;-68
2022/01/14 01:19:32;;;;;;;28.92;14.66;;;;;;;-2.18;94.97;101375.13;2008346;80;21034;-68
2022/01/14 01:22:35;;;;;;;28.44;15.03;;;;;;;-2.18;95.01;101372.59;2010077;80;20190;-68
2022/01/14 01:25:43;;;;;;;25.69;14.28;;;;;;;-2.18;95.03;101370.03;2011323;80;20673;-68
2022/01/14 01:32:05;;;;;;;23.30;13.30;;;;;;;-2.19;94.92;101356.44;2011280;78;23308;-68
2022/01/14 01:35:08;;;;;;;24.41;13.12;;;;;;;-2.22;94.81;101353.66;2011682;80;20194;-68
2022/01/14 01:38:16;;;;;;;27.96;14.50;;;;;;;-2.21;94.80;101354.53;2007726;80;20357;-68
2022/01/14 01:41:20;;;;;;;28.32;15.09;;;;;;;-2.22;94.76;101351.09;2011625;80;20289;-68
2022/01/14 01:45:47;;;;;;;26.56;13.78;;;;;;;-2.16;94.85;101356.66;2063357;76;22695;-68
2022/01/14 01:48:51;;;;;;;24.43;14.37;;;;;;;-2.23;94.73;101344.25;2041697;79;20200;-67
2022/01/14 01:51:54;;;;;;;30.64;15.12;;;;;;;-2.28;94.60;101343.00;2042058;79;20169;-67
2022/01/14 01:54:56;;;;;;;27.64;14.56;;;;;;;-2.31;94.62;101352.97;2041696;79;21152;-67
2022/01/14 01:57:59;;;;;;;27.93;13.90;;;;;;;-2.32;94.68;101337.56;2042586;79;20610;-67
2022/01/14 02:01:07;;;;;;;23.86;13.71;;;;;;;-2.30;94.82;101344.56;2042096;79;20688;-68
2022/01/14 02:04:09;;;;;;;24.36;13.62;;;;;;;-2.30;94.86;101347.09;2047929;79;20169;-68
2022/01/14 02:07:13;;;;;;;26.03;14.01;;;;;;;-2.31;94.89;101340.25;2047309;79;20180;-67
2022/01/14 02:10:22;;;;;;;29.46;14.99;;;;;;;-2.35;94.75;101342.41;2047866;79;20215;-67
2022/01/14 02:13:25;;;;;;;26.31;13.78;;;;;;;-2.35;94.80;101344.94;2047290;79;20161;-67
2022/01/14 02:16:34;;;;;;;22.82;13.82;;;;;;;-2.40;94.68;101343.69;2046194;79;20218;-67
2022/01/14 02:23:23;;;;;;;28.53;14.79;;;;;;;-2.37;94.87;101336.31;2046882;79;20343;-67
2022/01/14 02:26:25;;;;;;;26.96;13.94;;;;;;;-2.41;94.84;101335.19;2046821;79;20231;-67
2022/01/14 02:29:28;;;;;;;28.97;15.00;;;;;;;-2.42;95.03;101335.97;2047691;79;20165;-67
2022/01/14 02:32:30;;;;;;;27.03;13.99;;;;;;;-2.45;94.98;101341.69;2050301;76;20781;-67
2022/01/14 02:35:33;;;;;;;27.67;14.13;;;;;;;-2.46;95.09;101339.03;2052951;78;20171;-67
2022/01/14 02:38:37;;;;;;;25.30;14.37;;;;;;;-2.44;95.11;101347.66;2053012;78;20231;-67
2022/01/14 02:41:41;;;;;;;26.81;14.63;;;;;;;-2.42;95.14;101332.53;2052797;78;20189;-67
2022/01/14 02:44:44;;;;;;;23.90;12.72;;;;;;;-2.42;95.03;101332.53;2053032;78;20693;-67
2022/01/14 02:47:47;;;;;;;24.91;13.93;;;;;;;-2.43;95.00;101334.19;2046463;76;25615;-67
2022/01/14 02:54:11;;;;;;;26.69;13.98;;;;;;;-2.44;94.87;101317.16;2046790;79;20221;-67
2022/01/14 02:57:14;;;;;;;26.14;13.50;;;;;;;-2.45;94.75;101323.00;2043054;79;20245;-67
2022/01/14 03:00:19;;;;;;;23.24;13.28;;;;;;;-2.48;94.68;101310.94;2041200;79;20156;-67
2022/01/14 03:03:23;;;;;;;23.46;13.56;;;;;;;-2.49;94.63;101316.78;2041618;76;20277;-67
2022/01/14 03:06:27;;;;;;;23.44;12.84;;;;;;;-2.54;94.35;101307.00;2044373;79;20172;-67
2022/01/14 03:09:30;;;;;;;23.76;13.87;;;;;;;-2.57;94.48;101305.13;2045237;79;20610;-67
2022/01/14 03:12:34;;;;;;;25.24;12.89;;;;;;;-2.57;94.57;101297.50;2045111;79;20194;-67
2022/01/14 03:15:37;;;;;;;24.38;12.72;;;;;;;-2.58;94.55;101303.34;2044185;76;20310;-67
2022/01/14 03:18:44;;;;;;;25.99;13.06;;;;;;;-2.62;94.36;101297.91;2050359;79;20852;-67
2022/01/14 03:21:50;;;;;;;22.67;12.78;;;;;;;-2.67;94.33;101301.75;2050763;79;20172;-67
2022/01/14 03:27:56;;;;;;;26.50;13.47;;;;;;;-2.65;94.62;101295.13;2050922;79;20167;-67
2022/01/14 03:30:58;;;;;;;22.36;12.46;;;;;;;-2.65;94.60;101298.56;2047806;76;20552;-67
2022/01/14 03:34:01;;;;;;;22.91;13.62;;;;;;;-2.64;94.61;101290.16;2045424;79;20180;-67
2022/01/14 03:37:05;;;;;;;24.43;13.37;;;;;;;-2.60;94.72;101284.53;2045166;79;20678;-67
2022/01/14 03:40:08;;;;;;;26.01;13.58;;;;;;;-2.59;94.68;101293.06;2045193;79;20244;-67
2022/01/14 03:43:11;;;;;;;23.09;12.74;;;;;;;-2.65;94.44;101295.13;2043307;79;20258;-67
2022/01/14 03:46:13;;;;;;;22.72;12.80;;;;;;;-2.64;94.53;101294.38;2032797;76;20651;-67
2022/01/14 03:49:16;;;;;;;23.67;13.04;;;;;;;-2.64;94.53;101294.38;2034200;79;20220;-67
2022/01/14 03:52:19;;;;;;;26.14;12.68;;;;;;;-2.62;94.57;101303.00;2037546;79;20800;-67
2022/01/14 03:55:22;;;;;;;24.47;12.09;;;;;;;-2.61;94.53;101298.03;2034594;79;20483;-67
2022/01/14 03:58:27;;;;;;;24.67;13.41;;;;;;;-2.63;94.38;101289.41;2034568;79;20206;-67
2022/01/14 04:01:31;;;;;;;22.66;11.43;;;;;;;-2.64;94.36;101295.25;2032317;77;27086;-66
2022/01/14 04:04:35;;;;;;;21.76;11.72;;;;;;;-2.65;94.32;101301.09;2033798;79;20258;-67
2022/01/14 04:07:38;;;;;;;23.50;12.30;;;;;;;-2.67;94.19;101297.56;2033740;79;20250;-67
2022/01/14 04:10:41;;;;;;;25.57;12.98;;;;;;;-2.77;93.77;101292.50;2032745;79;20536;-67
2022/01/14 04:13:47;;;;;;;22.59;12.44;;;;;;;-2.83;93.96;101285.28;2033314;79;20193;-67
2022/01/14 04:16:50;;;;;;;23.46;12.37;;;;;;;-2.81;94.29;101283.75;2034560;77;21218;-67
2022/01/14 04:19:53;;;;;;;25.24;12.57;;;;;;;-2.80;94.32;101284.63;2038342;79;20172;-67
2022/01/14 04:22:56;;;;;;;23.62;12.17;;;;;;;-2.76;94.46;101274.81;2038193;79;20207;-67
2022/01/14 04:25:59;;;;;;;23.66;13.28;;;;;;;-2.71;94.52;101277.72;2038035;79;20283;-67
2022/01/14 04:29:01;;;;;;;23.09;12.49;;;;;;;-2.72;94.45;101264.91;2038349;79;20193;-67
2022/01/14 04:32:04;;;;;;;24.52;12.89;;;;;;;-2.73;94.38;101261.47;2037318;77;22849;-67
2022/01/14 04:35:12;;;;;;;22.80;12.56;;;;;;;-2.72;94.35;101263.22;2038396;79;20214;-67
2022/01/14 04:38:15;;;;;;;21.98;12.53;;;;;;;-2.75;94.18;101260.47;2038399;79;20212;-66
2022/01/14 04:41:17;;;;;;;22.59;13.21;;;;;;;-2.76;94.23;101264.66;2038243;79;20177;-67
2022/01/14 04:44:20;;;;;;;23.26;12.67;;;;;;;-2.74;94.30;101264.78;2043730;79;20216;-67
2022/01/14 04:47:44;;;;;;;24.79;12.46;;;;;;;-2.76;94.22;101257.03;2047007;76;20197;-66
2022/01/14 04:50:47;;;;;;;20.83;12.07;;;;;;;-2.78;94.22;101261.13;2048961;79;20229;-66
2022/01/14 04:53:50;;;;;;;24.10;12.14;;;;;;;-2.79;94.21;101266.97;2049411;79;20554;-67
2022/01/14 04:56:52;;;;;;;19.99;11.91;;;;;;;-2.79;94.19;101268.63;2049210;79;20189;-67
2022/01/14 04:59:55;;;;;;;24.89;12.62;;;;;;;-2.80;94.16;101264.31;2049002;79;20310;-67
2022/01/14 05:02:58;;;;;;;26.07;12.24;;;;;;;-2.81;94.10;101260.00;2047644;76;20217;-66
2022/01/14 05:06:02;;;;;;;24.94;11.90;;;;;;;-2.82;94.08;101254.03;2049102;79;20188;-66
2022/01/14 05:09:16;;;;;;;20.76;12.00;;;;;;;-2.84;93.99;101264.84;2049050;79;20215;-66
2022/01/14 05:12:18;;;;;;;25.18;12.13;;;;;;;-2.83;94.02;101261.53;2048972;79;20163;-67
2022/01/14 05:15:21;;;;;;;22.22;12.94;;;;;;;-2.84;94.00;101260.66;2047224;76;20288;-66
2022/01/14 05:18:24;;;;;;;23.30;12.59;;;;;;;-2.89;93.89;101261.03;2049314;79;20164;-66
2022/01/14 05:21:27;;;;;;;23.52;12.36;;;;;;;-2.88;93.91;101260.25;2049129;78;20195;-66
2022/01/14 05:24:29;;;;;;;25.73;13.07;;;;;;;-2.86;93.97;101264.72;2049006;79;20187;-67
2022/01/14 05:27:32;;;;;;;24.52;12.49;;;;;;;-2.92;93.69;101268.41;2048917;79;20274;-66
2022/01/14 05:30:35;;;;;;;21.82;12.47;;;;;;;-2.94;93.91;101264.88;2046930;76;22143;-67
2022/01/14 05:33:41;;;;;;;24.50;13.21;;;;;;;-2.92;94.05;101264.22;2048194;79;20732;-66
2022/01/14 05:36:44;;;;;;;24.68;12.40;;;;;;;-2.95;93.82;101275.78;2049400;79;20175;-66
2022/01/14 05:39:46;;;;;;;22.06;12.39;;;;;;;-2.95;94.00;101279.22;2049298;79;20387;-66
2022/01/14 05:42:49;;;;;;;26.41;13.28;;;;;;;-2.96;93.99;101279.09;2049167;78;20285;-66
2022/01/14 05:45:51;;;;;;;28.20;13.26;;;;;;;-2.97;94.13;101277.34;2041453;76;20291;-66
2022/01/14 05:48:54;;;;;;;23.01;12.81;;;;;;;-2.97;94.29;101273.13;2043868;79;20183;-66
2022/01/14 05:51:57;;;;;;;23.36;13.26;;;;;;;-2.95;94.40;101274.16;2043663;79;20771;-66
2022/01/14 05:54:59;;;;;;;24.78;13.09;;;;;;;-2.94;94.34;101280.13;2042329;79;20172;-66
2022/01/14 05:58:02;;;;;;;24.40;12.80;;;;;;;-2.96;94.29;101282.53;2043447;79;20168;-66
2022/01/14 06:01:05;;;;;;;25.70;12.53;;;;;;;-2.96;94.30;101290.16;2041341;76;32944;-66
2022/01/14 06:04:07;;;;;;;20.59;12.16;;;;;;;-2.95;94.33;101291.03;2043450;79;20184;-66
2022/01/14 06:07:10;;;;;;;24.63;12.40;;;;;;;-2.96;94.22;101285.06;2046868;79;20618;-66
2022/01/14 06:10:14;;;;;;;29.33;12.84;;;;;;;-3.00;93.96;101285.59;2043592;79;20204;-66
2022/01/14 06:13:16;;;;;;;22.61;13.03;;;;;;;-3.01;94.06;101270.25;2043575;79;20220;-66
2022/01/14 06:16:19;;;;;;;24.68;11.67;;;;;;;-3.00;94.15;101279.63;2042105;76;20989;-66
2022/01/14 06:19:23;;;;;;;24.81;13.82;;;;;;;-3.00;94.15;101282.19;2042288;79;20828;-66
2022/01/14 06:22:26;;;;;;;21.44;11.62;;;;;;;-3.08;93.88;101277.34;2043300;79;20287;-66
2022/01/14 06:25:28;;;;;;;25.73;12.97;;;;;;;-3.07;94.15;101279.13;2043508;79;20214;-66
2022/01/14 06:28:31;;;;;;;24.64;11.54;;;;;;;-3.05;94.17;101274.19;2043446;79;20713;-67
2022/01/14 06:31:34;;;;;;;22.04;12.12;;;;;;;-3.04;94.19;101268.34;2042786;76;21084;-66
2022/01/14 06:34:38;;;;;;;22.57;12.71;;;;;;;-3.08;94.04;101264.66;2043868;79;20196;-66
2022/01/14 06:37:41;;;;;;;24.30;13.11;;;;;;;-3.09;94.00;101267.06;2044593;79;20659;-66
2022/01/14 06:40:46;;;;;;;25.29;13.06;;;;;;;-3.13;94.11;101267.59;2043845;79;20168;-66
2022/01/14 06:43:49;;;;;;;22.92;13.18;;;;;;;-3.17;94.00;101263.94;2044815;79;20172;-66
2022/01/14 06:46:52;;;;;;;23.37;12.56;;;;;;;-3.17;94.08;101260.50;2044353;76;20939;-66
2022/01/14 06:49:54;;;;;;;25.44;13.17;;;;;;;-3.16;94.11;101254.66;2044413;79;20200;-66
2022/01/14 06:52:57;;;;;;;24.79;12.71;;;;;;;-3.21;93.94;101253.41;2044547;79;20184;-66
2022/01/14 06:56:00;;;;;;;24.31;12.70;;;;;;;-3.20;94.06;101256.06;2043933;79;20640;-66
2022/01/14 06:59:02;;;;;;;23.29;12.69;;;;;;;-3.16;94.16;101257.19;2044131;79;20168;-66
2022/01/14 07:02:05;;;;;;;25.18;12.97;;;;;;;-3.17;93.93;101255.44;2040645;76;20236;-66
2022/01/14 07:05:09;;;;;;;24.96;13.18;;;;;;;-3.22;93.71;101257.59;2044653;79;20190;-66
2022/01/14 07:08:12;;;;;;;24.42;13.60;;;;;;;-3.19;93.98;101262.94;2043960;79;20260;-66
2022/01/14 07:11:15;;;;;;;25.12;13.20;;;;;;;-3.23;93.74;101262.53;2044064;79;20165;-68
2022/01/14 07:14:18;;;;;;;26.10;13.88;;;;;;;-3.24;93.88;101269.25;2043849;79;20208;-68
2022/01/14 07:17:21;;;;;;;24.40;13.54;;;;;;;-3.24;94.05;101259.09;2042678;76;20210;-68
2022/01/14 07:20:23;;;;;;;28.48;14.43;;;;;;;-3.23;94.09;101266.00;2044147;79;20176;-68
2022/01/14 07:23:26;;;;;;;26.42;14.37;;;;;;;-3.18;94.29;101261.28;2044493;79;20197;-68
2022/01/14 07:26:29;;;;;;;22.63;13.38;;;;;;;-3.19;94.18;101256.97;2044283;79;20959;-68
2022/01/14 07:29:32;;;;;;;29.80;13.42;;;;;;;-3.17;94.22;101263.94;2043945;79;20169;-68
2022/01/14 07:32:35;;;;;;;29.58;14.13;;;;;;;-3.15;94.20;101271.69;2042318;76;20514;-68
2022/01/14 07:35:40;;;;;;;25.02;13.04;;;;;;;-3.14;94.18;101276.88;2043606;79;20180;-68
2022/01/14 07:38:42;;;;;;;28.39;14.38;;;;;;;-3.11;94.18;101291.47;2044557;79;20224;-68
2022/01/14 07:41:46;;;;;;;25.38;13.53;;;;;;;-3.14;94.04;101289.56;2043405;79;20176;-68
2022/01/14 07:44:50;;;;;;;25.74;13.58;;;;;;;-3.12;94.15;101288.03;2043498;79;20697;-68
2022/01/14 07:47:52;;;;;;;25.54;13.33;;;;;;;-3.09;94.14;101280.66;2042363;77;23264;-68
2022/01/14 07:51:00;;;;;;;26.81;14.28;;;;;;;-3.06;94.16;101283.44;2047009;79;20184;-69
2022/01/14 07:54:06;;;;;;;27.91;13.84;;;;;;;-3.02;94.14;101283.72;2044308;79;20194;-68
2022/01/14 07:57:09;;;;;;;26.58;13.59;;;;;;;-3.00;94.11;101277.97;2043687;79;20974;-68
2022/01/14 08:00:12;;;;;;;25.08;13.64;;;;;;;-2.96;94.11;101281.66;2042873;79;20556;-68
2022/01/14 08:03:15;;;;;;;29.42;13.84;;;;;;;-2.93;94.09;101271.72;2043750;76;20272;-68
2022/01/14 08:06:17;;;;;;;24.37;13.07;;;;;;;-2.87;94.11;101274.75;2043903;79;20697;-68
2022/01/14 08:09:20;;;;;;;27.09;13.57;;;;;;;-2.79;94.17;101276.25;2043692;79;20148;-68
2022/01/14 08:12:23;;;;;;;28.32;14.26;;;;;;;-2.77;94.01;101280.69;2044217;79;20878;-69
2022/01/14 08:15:26;;;;;;;30.26;15.06;;;;;;;-2.71;93.94;101290.44;2042051;76;20216;-68
2022/01/14 08:18:28;;;;;;;28.41;14.92;;;;;;;-2.63;94.10;101286.84;2043818;79;20212;-68
2022/01/14 08:21:31;;;;;;;26.27;14.47;;;;;;;-2.51;94.29;101280.19;2043973;79;20189;-68
2022/01/14 08:24:34;;;;;;;27.06;13.53;;;;;;;-2.39;94.43;101279.34;2044636;79;20244;-68
2022/01/14 08:27:38;;;;;;;33.20;15.90;;;;;;;-2.28;94.58;101281.97;2043618;79;20195;-68
2022/01/14 08:30:41;;;;;;;29.56;15.31;;;;;;;-2.11;94.89;101274.72;2042015;76;21501;-69
2022/01/14 08:33:44;;;;;;;27.26;14.46;;;;;;;-1.91;95.00;101277.13;2044165;79;20679;-69
2022/01/14 08:36:47;;;;;;;29.02;15.24;;;;;;;-1.70;94.94;101282.94;2043435;79;20191;-69
2022/01/14 08:39:50;;;;;;;29.89;15.41;;;;;;;-1.47;94.82;101276.97;2038894;79;20168;-69
2022/01/14 08:42:54;;;;;;;26.03;14.26;;;;;;;-1.27;94.56;101274.22;2041402;79;20704;-69
2022/01/14 08:45:58;;;;;;;26.18;14.41;;;;;;;-1.05;93.91;101276.69;2030953;76;22302;-69
2022/01/14 08:49:01;;;;;;;32.71;15.61;;;;;;;-0.81;93.45;101268.22;2034953;79;20173;-69
2022/01/14 08:52:04;;;;;;;25.66;13.87;;;;;;;-0.57;92.89;101265.63;2036702;79;21103;-69
2022/01/14 08:55:07;;;;;;;27.70;14.66;;;;;;;-0.36;92.16;101255.28;2036616;79;20169;-68
2022/01/14 08:58:10;;;;;;;24.31;13.70;;;;;;;-0.13;91.32;101264.50;2036317;79;20177;-68
2022/01/14 09:01:12;;;;;;;24.11;14.31;;;;;;;0.08;90.28;101270.16;2033683;76;23149;-67
2022/01/14 09:04:15;;;;;;;29.52;15.02;;;;;;;0.24;89.12;101269.53;2035581;79;20208;-67
2022/01/14 09:07:18;;;;;;;28.96;14.67;;;;;;;0.39;87.92;101273.09;2035162;79;20188;-67
2022/01/14 09:10:21;;;;;;;23.14;13.99;;;;;;;0.53;87.12;101276.53;2038551;79;20210;-67
2022/01/14 09:13:25;;;;;;;27.09;13.36;;;;;;;0.67;86.43;101269.78;2035170;79;21176;-67
2022/01/14 09:16:27;;;;;;;24.13;13.12;;;;;;;0.80;85.89;101274.91;2033273;76;22455;-67
2022/01/14 09:19:30;;;;;;;26.44;13.49;;;;;;;0.96;85.46;101276.78;2035509;79;20221;-68
2022/01/14 09:22:35;;;;;;;23.96;13.79;;;;;;;1.14;84.95;101265.19;2035856;79;20752;-67
2022/01/14 09:25:38;;;;;;;23.94;14.11;;;;;;;1.30;84.59;101261.91;2035003;79;20429;-67
2022/01/14 09:28:42;;;;;;;24.35;14.26;;;;;;;1.46;83.96;101257.84;2038062;79;20889;-68
2022/01/14 09:31:45;;;;;;;26.29;14.30;;;;;;;1.61;83.38;101257.88;2031215;77;20554;-68
2022/01/14 09:34:48;;;;;;;30.67;14.73;;;;;;;1.74;82.95;101262.97;2033979;79;20416;-68
2022/01/14 09:37:51;;;;;;;26.25;14.25;;;;;;;1.92;82.47;101252.94;2034002;79;20320;-68
2022/01/14 09:40:58;;;;;;;26.45;14.32;;;;;;;2.05;82.08;101259.69;2035341;79;20982;-68
2022/01/14 09:44:02;;;;;;;25.50;15.48;;;;;;;2.20;81.50;101255.50;2039509;79;20864;-68
2022/01/14 09:47:05;;;;;;;27.92;15.75;;;;;;;2.26;80.64;101262.63;2038776;76;25890;-68
2022/01/14 09:50:08;;;;;;;25.58;14.48;;;;;;;2.40;80.52;101259.22;2045496;79;20320;-69
2022/01/14 09:53:13;;;;;;;33.36;16.77;;;;;;;2.56;80.00;101266.13;2045446;79;20435;-69
2022/01/14 09:56:18;;;;;;;27.61;15.52;;;;;;;2.62;79.77;101262.22;2045289;79;20409;-69
2022/01/14 09:59:21;;;;;;;25.75;15.14;;;;;;;2.73;79.49;101266.28;2043931;79;21428;-69
2022/01/14 10:02:32;;;;;;;26.60;14.57;;;;;;;2.87;79.39;101266.16;2042087;76;20437;-69
2022/01/14 10:05:37;;;;;;;32.26;16.89;;;;;;;2.95;79.10;101264.94;2045398;79;20399;-69
2022/01/14 10:08:42;;;;;;;26.54;15.31;;;;;;;2.99;78.85;101275.44;2045313;79;20314;-69
2022/01/14 10:12:18;;;;;;;30.08;16.34;;;;;;;3.06;78.76;101273.25;2046058;79;20447;-69
2022/01/14 10:15:20;;;;;;;34.36;16.49;;;;;;;3.13;78.78;101272.75;2032513;79;20401;-69
2022/01/14 10:18:23;;;;;;;35.05;17.23;;;;;;;3.15;78.86;101268.59;2041764;79;20874;-69
2022/01/14 10:21:33;;;;;;;37.14;19.92;;;;;;;3.15;78.99;101264.34;2042340;79;20408;-69
2022/01/14 10:24:35;;;;;;;32.24;18.70;;;;;;;3.11;78.98;101264.09;2041684;79;20353;-69
2022/01/14 10:27:40;;;;;;;31.50;17.42;;;;;;;3.01;79.22;101266.13;2041948;79;20319;-69
2022/01/14 10:30:46;;;;;;;35.51;17.64;;;;;;;2.90;79.64;101259.53;2040729;76;20315;-68
2022/01/14 10:33:48;;;;;;;34.65;17.41;;;;;;;2.80;80.34;101248.66;2042112;79;20341;-69
2022/01/14 10:37:14;;;;;;;40.21;20.13;;;;;;;2.74;81.20;101251.78;2042779;79;20323;-70
2022/01/14 10:40:21;;;;;;;39.13;19.51;;;;;;;2.68;81.82;101254.84;2042083;79;20337;-69
2022/01/14 10:43:32;;;;;;;36.20;19.81;;;;;;;2.67;82.69;101242.84;2042871;79;20369;-69
2022/01/14 10:46:34;;;;;;;49.51;21.27;;;;;;;2.73;83.18;101234.63;2038884;76;20392;-69
2022/01/14 10:49:38;;;;;;;49.88;21.01;;;;;;;2.74;83.61;101231.25;2036133;79;20450;-69
2022/01/14 10:52:48;;;;;;;47.15;22.44;;;;;;;2.79;83.93;101229.81;2037428;79;20320;-69
2022/01/14 10:56:00;;;;;;;40.50;20.54;;;;;;;2.86;84.16;101223.34;2036728;79;21026;-69
2022/01/14 10:59:03;;;;;;;39.44;20.05;;;;;;;2.92;84.53;101218.56;2033798;79;20297;-69
2022/01/14 11:02:35;;;;;;;39.66;21.15;;;;;;;3.02;84.63;101210.56;2036260;76;20344;-68
2022/01/14 11:05:38;;;;;;;44.90;20.21;;;;;;;3.09;84.02;101207.56;2036440;79;20354;-68
2022/01/14 11:08:41;;;;;;;40.38;19.35;;;;;;;3.21;83.79;101205.63;2035691;79;20316;-68
2022/01/14 11:11:46;;;;;;;41.25;21.11;;;;;;;3.30;83.51;101208.72;2036259;79;20313;-68
2022/01/14 11:14:50;;;;;;;41.36;19.90;;;;;;;3.39;83.16;101213.44;2035944;79;20423;-68
2022/01/14 11:17:55;;;;;;;34.90;19.02;;;;;;;3.46;82.90;101206.97;2035018;79;21124;-68
2022/01/14 11:24:25;;;;;;;35.36;17.94;;;;;;;3.68;82.87;101198.72;2036276;79;20575;-69
2022/01/14 11:27:30;;;;;;;36.21;18.51;;;;;;;3.78;83.50;101193.25;2036207;79;20377;-69
2022/01/14 11:30:39;;;;;;;43.75;19.77;;;;;;;3.88;83.56;101185.19;2034897;76;23652;-69
2022/01/14 11:33:43;;;;;;;38.26;18.83;;;;;;;3.99;83.65;101178.94;2036604;79;20448;-68
2022/01/14 11:36:56;;;;;;;37.28;19.25;;;;;;;4.06;83.04;101180.09;2035349;79;20635;-68
2022/01/14 11:40:04;;;;;;;37.06;19.01;;;;;;;4.16;81.53;101174.63;2036946;79;20927;-69
2022/01/14 11:43:06;;;;;;;42.12;21.16;;;;;;;4.27;81.42;101167.44;2036602;79;20350;-68
2022/01/14 11:46:13;;;;;;;44.50;20.63;;;;;;;4.37;81.42;101169.66;2037021;76;21076;-69
2022/01/14 11:49:38;;;;;;;36.51;19.56;;;;;;;4.50;81.34;101160.06;2042074;79;20370;-68
2022/01/14 11:52:42;;;;;;;36.54;19.88;;;;;;;4.59;81.00;101159.59;2041370;79;20327;-68
2022/01/14 11:55:45;;;;;;;41.06;20.31;;;;;;;4.69;80.18;101153.22;2041411;79;20324;-69
2022/01/14 11:58:47;;;;;;;38.78;19.14;;;;;;;4.80;80.28;101150.31;2041512;79;20359;-68
2022/01/14 12:01:55;;;;;;;31.29;17.61;;;;;;;4.89;80.07;101144.75;2035201;76;40033;-71
2022/01/14 12:05:03;;;;;;;40.50;18.41;;;;;;;4.99;80.23;101144.34;2036808;79;20337;-69
2022/01/14 12:08:12;;;;;;;36.31;18.44;;;;;;;5.12;79.34;101143.22;2038314;79;20352;-69
2022/01/14 12:11:20;;;;;;;33.63;17.04;;;;;;;5.20;78.93;101144.44;2039010;79;20309;-70
2022/01/14 12:14:36;;;;;;;35.01;17.17;;;;;;;5.33;78.76;101133.88;2038444;79;20313;-69
2022/01/14 12:17:42;;;;;;;29.24;16.05;;;;;;;5.44;77.69;101126.63;2040982;76;20314;-70
2022/01/14 12:20:48;;;;;;;32.55;16.25;;;;;;;5.54;76.85;101118.47;2044160;79;20311;-69
2022/01/14 12:23:51;;;;;;;31.89;15.94;;;;;;;5.65;76.63;101118.97;2044302;79;20341;-69
2022/01/14 12:30:15;;;;;;;29.17;14.68;;;;;;;5.81;75.64;101099.88;2042153;79;20346;-69
2022/01/14 12:33:42;;;;;;;26.13;13.79;;;;;;;5.91;75.00;101097.75;2043367;76;20423;-69
2022/01/14 12:36:44;;;;;;;31.05;14.14;;;;;;;6.05;74.38;101094.06;2043579;79;20906;-69
2022/01/14 12:39:50;;;;;;;26.98;13.29;;;;;;;6.15;74.18;101097.91;2044332;79;20312;-69
2022/01/14 12:42:58;;;;;;;29.66;13.82;;;;;;;6.21;74.00;101093.00;2043560;79;20308;-69
2022/01/14 12:46:12;;;;;;;23.89;13.32;;;;;;;6.31;73.46;101089.09;2043510;79;20601;-69
2022/01/14 12:49:29;;;;;;;24.84;12.32;;;;;;;6.36;73.08;101077.25;2048613;79;20298;-70
2022/01/14 12:52:38;;;;;;;21.49;11.14;;;;;;;6.43;72.50;101071.50;2048034;79;20318;-69
2022/01/14 12:55:41;;;;;;;18.91;10.51;;;;;;;6.52;71.88;101066.72;2049204;79;20860;-69
2022/01/14 12:59:13;;;;;;;17.80;9.85;;;;;;;6.59;71.41;101065.25;2048608;79;20235;-69
2022/01/14 13:02:22;;;;;;;20.80;9.79;;;;;;;6.66;70.81;101057.81;2046527;76;20619;-69
2022/01/14 13:05:26;;;;;;;20.50;10.26;;;;;;;6.75;71.17;101049.50;2048848;79;20302;-69
2022/01/14 13:08:29;;;;;;;18.71;10.06;;;;;;;6.82;71.18;101050.59;2048616;79;20187;-69
2022/01/14 13:11:45;;;;;;;14.15;8.61;;;;;;;6.86;71.04;101047.34;2048908;79;20414;-69
2022/01/14 13:14:53;;;;;;;15.88;8.60;;;;;;;6.91;70.29;101044.09;2049257;79;20341;-71
2022/01/14 13:18:02;;;;;;;15.54;8.07;;;;;;;6.96;70.06;101034.81;2046763;76;21547;-70
2022/01/14 13:21:04;;;;;;;17.61;7.82;;;;;;;7.04;69.68;101029.94;2048852;79;20163;-69
2022/01/14 13:24:28;;;;;;;17.50;7.99;;;;;;;7.07;69.41;101024.00;2048797;79;20193;-70
2022/01/14 13:27:39;;;;;;;15.91;8.32;;;;;;;7.06;71.08;101020.53;2048658;79;20424;-70
2022/01/14 13:30:44;;;;;;;12.06;7.03;;;;;;;7.09;70.56;101018.06;2045618;76;20867;-70
2022/01/14 13:33:48;;;;;;;12.52;7.11;;;;;;;7.16;69.72;101014.88;2049208;79;20368;-69
2022/01/14 13:36:50;;;;;;;13.32;7.51;;;;;;;7.23;69.43;101021.16;2048264;79;20318;-69
2022/01/14 13:40:12;;;;;;;13.64;7.82;;;;;;;7.26;70.56;101013.50;2049237;79;20347;-70
2022/01/14 13:43:22;;;;;;;15.81;7.46;;;;;;;7.22;71.19;101012.50;2045749;79;20431;-70
2022/01/14 13:46:32;;;;;;;15.00;7.60;;;;;;;7.22;70.57;101007.34;2035307;77;24471;-70
2022/01/14 13:49:34;;;;;;;14.91;7.53;;;;;;;7.22;70.94;101009.06;2034773;79;20304;-70
2022/01/14 13:52:38;;;;;;;14.04;6.79;;;;;;;7.12;72.13;101009.53;2035344;79;20324;-69
2022/01/14 13:55:44;;;;;;;14.75;7.09;;;;;;;7.11;72.25;101012.94;2034455;79;20313;-70
2022/01/14 13:58:55;;;;;;;11.49;6.05;;;;;;;7.01;73.49;101016.03;2034982;79;20324;-70
2022/01/14 14:01:59;;;;;;;10.86;6.80;;;;;;;6.86;74.13;101004.34;2033069;76;21208;-70
2022/01/14 14:05:03;;;;;;;11.18;6.57;;;;;;;6.81;74.53;101007.56;2034274;79;20329;-70
2022/01/14 14:09:03;;;;;;;10.00;6.22;;;;;;;6.72;75.45;101000.34;2034910;79;20335;-70
2022/01/14 14:18:10;;;;;;;13.51;6.74;;;;;;;6.68;75.41;101006.25;2034517;77;20224;-69
2022/01/14 14:21:15;;;;;;;12.07;6.03;;;;;;;6.66;74.85;101002.72;2034542;79;20336;-70
2022/01/14 14:24:18;;;;;;;14.26;7.35;;;;;;;6.64;75.57;101006.94;2034853;79;20308;-70
2022/01/14 14:27:21;;;;;;;15.95;8.99;;;;;;;6.63;74.41;101000.00;2034222;79;20832;-69
2022/01/14 14:30:27;;;;;;;17.90;9.19;;;;;;;6.70;72.75;100999.44;2032783;76;20374;-69
2022/01/14 14:33:29;;;;;;;16.50;9.04;;;;;;;6.72;71.99;100991.75;2035195;79;20347;-71
2022/01/14 14:36:33;;;;;;;16.21;8.61;;;;;;;6.73;71.67;101002.13;2034275;79;20308;-70
2022/01/14 14:39:36;;;;;;;18.10;8.93;;;;;;;6.71;71.85;100997.72;2035457;79;20305;-69
2022/01/14 14:42:39;;;;;;;18.92;9.57;;;;;;;6.72;71.49;100987.47;2035155;79;20344;-70